createdAt,value
2016-09-11T00:00:56.414Z,18.27
2016-09-11T00:01:56.426Z,18.42
2016-09-11T00:02:56.475Z,18.39
2016-09-11T00:04:11.405Z,18.39
2016-09-11T00:05:11.429Z,18.42
2016-09-11T00:05:56.547Z,18.42
2016-09-11T00:06:56.556Z,18.36
2016-09-11T00:07:56.579Z,18.37
2016-09-11T00:09:11.603Z,18.42
2016-09-11T00:09:56.639Z,18.35
2016-09-11T00:10:56.813Z,18.41
2016-09-11T00:11:56.693Z,18.3
2016-09-11T00:12:56.719Z,18.36
2016-09-11T00:13:56.854Z,18.26
2016-09-11T00:14:56.775Z,18.3
2016-09-11T00:15:56.801Z,18.29
2016-09-11T00:16:56.833Z,18.27
2016-09-11T00:17:57.157Z,18.27
2016-09-11T00:18:56.869Z,18.27
2016-09-11T00:19:56.891Z,18.18
2016-09-11T00:20:57.436Z,18.27
2016-09-11T00:21:56.952Z,18.2
2016-09-11T00:22:57.000Z,18.2
2016-09-11T00:23:57.324Z,18.26
2016-09-11T00:24:57.029Z,18.26
2016-09-11T00:25:57.057Z,18.26
2016-09-11T00:26:57.097Z,18.26
2016-09-11T00:27:57.104Z,18.26
2016-09-11T00:28:57.438Z,18.23
2016-09-11T00:29:57.163Z,18.23
2016-09-11T00:30:57.621Z,18.14
2016-09-11T00:31:57.207Z,18.18
2016-09-11T00:32:57.234Z,18.12
2016-09-11T00:33:57.593Z,18.14
2016-09-11T00:35:12.261Z,18.15
2016-09-11T00:36:57.655Z,18.11
2016-09-11T00:37:57.395Z,18.07
2016-09-11T00:38:57.398Z,18.08
2016-09-11T00:39:57.718Z,18.12
2016-09-11T00:41:12.389Z,18.1
2016-09-11T00:41:57.546Z,18.18
2016-09-11T00:42:57.489Z,18.17
2016-09-11T00:43:57.546Z,18.12
2016-09-11T00:44:57.551Z,18.11
2016-09-11T00:45:57.579Z,18.12
2016-09-11T00:46:57.603Z,18.1
2016-09-11T00:47:57.629Z,18.15
2016-09-11T00:49:12.581Z,18.12
2016-09-11T00:49:57.667Z,18.12
2016-09-11T00:50:57.743Z,18.1
2016-09-11T00:52:57.752Z,18.08
2016-09-11T00:53:58.109Z,18.08
2016-09-11T00:54:57.895Z,18.15
2016-09-11T00:55:57.837Z,18.11
2016-09-11T00:57:57.885Z,18.1
2016-09-11T00:58:57.910Z,18.02
2016-09-11T00:59:57.932Z,17.92
2016-09-11T01:00:57.958Z,18.02
2016-09-11T01:01:58.331Z,18.05
2016-09-11T01:02:58.076Z,18.1
2016-09-11T01:03:58.050Z,18.1
2016-09-11T01:05:58.092Z,18.12
2016-09-11T01:06:58.114Z,18.08
2016-09-11T01:07:58.138Z,18.07
2016-09-11T01:08:58.482Z,18.11
2016-09-11T01:09:58.199Z,18.15
2016-09-11T01:11:13.225Z,18.1
2016-09-11T01:12:13.205Z,18.05
2016-09-11T01:13:13.186Z,18.02
2016-09-11T01:13:58.619Z,18.1
2016-09-11T01:14:58.326Z,18.07
2016-09-11T01:16:58.380Z,18.1
2016-09-11T01:17:58.457Z,17.95
2016-09-11T01:18:58.427Z,18.03
2016-09-11T01:20:58.501Z,18.11
2016-09-11T01:21:58.797Z,18.08
2016-09-11T01:22:58.537Z,18.08
2016-09-11T01:23:58.547Z,18.05
2016-09-11T01:24:58.579Z,18.1
2016-09-11T01:25:58.610Z,18.1
2016-09-11T01:26:58.631Z,18.05
2016-09-11T01:27:58.652Z,17.97
2016-09-11T01:29:13.605Z,18.02
2016-09-11T01:29:58.715Z,17.93
2016-09-11T01:30:58.732Z,17.99
2016-09-11T01:31:58.821Z,17.95
2016-09-11T01:32:58.828Z,17.97
2016-09-11T01:33:58.802Z,17.92
2016-09-11T01:34:58.831Z,17.87
2016-09-11T01:35:58.855Z,17.89
2016-09-11T01:36:58.906Z,17.87
2016-09-11T01:37:58.918Z,17.9
2016-09-11T01:38:58.961Z,17.86
2016-09-11T01:39:58.972Z,17.92
2016-09-11T01:40:59.032Z,17.89
2016-09-11T01:41:59.009Z,17.84
2016-09-11T01:42:59.039Z,17.75
2016-09-11T01:44:13.985Z,17.72
2016-09-11T01:45:59.416Z,17.75
2016-09-11T01:46:59.145Z,17.77
2016-09-11T01:47:59.183Z,17.75
2016-09-11T01:48:59.499Z,17.77
2016-09-11T01:49:59.234Z,17.77
2016-09-11T01:50:59.503Z,17.79
2016-09-11T01:51:59.281Z,17.81
2016-09-11T01:52:59.681Z,17.81
2016-09-11T01:53:59.463Z,17.75
2016-09-11T01:54:59.392Z,17.81
2016-09-11T01:55:59.369Z,17.77
2016-09-11T01:57:59.445Z,17.79
2016-09-11T01:59:14.442Z,17.74
2016-09-11T01:59:59.495Z,17.81
2016-09-11T02:00:59.781Z,17.82
2016-09-11T02:01:59.532Z,17.78
2016-09-11T02:02:59.860Z,17.75
2016-09-11T02:03:59.579Z,17.81
2016-09-11T02:04:59.605Z,17.77
2016-09-11T02:05:59.630Z,17.78
2016-09-11T02:06:59.748Z,17.75
2016-09-11T02:07:59.675Z,17.75
2016-09-11T02:09:00.087Z,17.75
2016-09-11T02:10:00.058Z,17.79
2016-09-11T02:10:59.765Z,17.77
2016-09-11T02:11:59.793Z,17.82
2016-09-11T02:12:59.838Z,17.81
2016-09-11T02:14:59.867Z,17.81
2016-09-11T02:16:14.816Z,17.74
2016-09-11T02:17:00.235Z,17.75
2016-09-11T02:18:00.040Z,17.74
2016-09-11T02:18:59.978Z,17.68
2016-09-11T02:20:00.353Z,17.81
2016-09-11T02:21:00.039Z,17.84
2016-09-11T02:22:00.426Z,17.72
2016-09-11T02:23:00.131Z,17.84
2016-09-11T02:24:00.408Z,17.79
2016-09-11T02:25:00.229Z,17.77
2016-09-11T02:27:00.178Z,17.79
2016-09-11T02:28:00.200Z,17.77
2016-09-11T02:29:15.143Z,17.71
2016-09-11T02:30:00.695Z,17.74
2016-09-11T02:31:00.273Z,17.72
2016-09-11T02:32:15.230Z,17.72
2016-09-11T02:33:00.332Z,17.74
2016-09-11T02:34:15.276Z,17.7
2016-09-11T02:35:00.384Z,17.64
2016-09-11T02:36:00.406Z,17.68
2016-09-11T02:37:00.742Z,17.74
2016-09-11T02:38:00.780Z,17.66
2016-09-11T02:39:00.964Z,17.63
2016-09-11T02:40:00.922Z,17.64
2016-09-11T02:41:00.542Z,17.74
2016-09-11T02:42:00.906Z,17.71
2016-09-11T02:43:00.687Z,17.72
2016-09-11T02:44:00.619Z,17.77
2016-09-11T02:45:00.710Z,17.74
2016-09-11T02:46:00.650Z,17.77
2016-09-11T02:47:01.012Z,17.77
2016-09-11T02:48:15.780Z,17.74
2016-09-11T02:49:00.746Z,17.74
2016-09-11T02:50:00.774Z,17.78
2016-09-11T02:51:00.961Z,17.78
2016-09-11T02:53:00.856Z,17.72
2016-09-11T02:54:00.886Z,17.74
2016-09-11T02:55:00.890Z,17.81
2016-09-11T02:56:01.387Z,17.77
2016-09-11T02:57:00.959Z,17.75
2016-09-11T02:58:00.981Z,17.74
2016-09-11T02:59:01.682Z,17.77
2016-09-11T03:00:01.360Z,17.78
2016-09-11T03:01:01.076Z,17.79
2016-09-11T03:02:15.991Z,17.81
2016-09-11T03:03:01.088Z,17.77
2016-09-11T03:04:16.377Z,17.77
2016-09-11T03:05:01.146Z,17.74
2016-09-11T03:06:01.173Z,17.78
2016-09-11T03:07:01.221Z,17.75
2016-09-11T03:08:01.225Z,17.7
2016-09-11T03:09:01.251Z,17.64
2016-09-11T03:10:02.193Z,17.64
2016-09-11T03:11:01.363Z,17.71
2016-09-11T03:12:01.366Z,17.59
2016-09-11T03:13:16.320Z,17.59
2016-09-11T03:14:01.390Z,17.66
2016-09-11T03:15:01.739Z,17.68
2016-09-11T03:16:01.458Z,17.72
2016-09-11T03:17:01.465Z,17.64
2016-09-11T03:18:02.278Z,17.66
2016-09-11T03:19:16.468Z,17.7
2016-09-11T03:20:16.452Z,17.62
2016-09-11T03:21:01.894Z,17.62
2016-09-11T03:22:01.661Z,17.59
2016-09-11T03:23:01.672Z,17.62
2016-09-11T03:24:01.837Z,17.58
2016-09-11T03:25:01.698Z,17.56
2016-09-11T03:26:01.699Z,17.54
2016-09-11T03:27:01.782Z,17.55
2016-09-11T03:28:01.743Z,17.58
2016-09-11T03:29:01.813Z,17.58
2016-09-11T03:30:16.712Z,17.55
2016-09-11T03:31:01.828Z,17.52
2016-09-11T03:32:01.873Z,17.58
2016-09-11T03:33:01.875Z,17.56
2016-09-11T03:34:01.918Z,17.55
2016-09-11T03:35:02.553Z,17.55
2016-09-11T03:37:02.084Z,17.54
2016-09-11T03:38:01.989Z,17.54
2016-09-11T03:39:02.029Z,17.55
2016-09-11T03:40:02.189Z,17.63
2016-09-11T03:41:02.071Z,17.63
2016-09-11T03:42:02.165Z,17.56
2016-09-11T03:43:02.150Z,17.52
2016-09-11T03:44:02.620Z,17.55
2016-09-11T03:45:02.538Z,17.51
2016-09-11T03:46:02.275Z,17.54
2016-09-11T03:47:02.251Z,17.51
2016-09-11T03:48:02.268Z,17.63
2016-09-11T03:49:02.315Z,17.46
2016-09-11T03:50:02.630Z,17.58
2016-09-11T03:51:17.253Z,17.51
2016-09-11T03:52:02.390Z,17.54
2016-09-11T03:53:02.638Z,17.49
2016-09-11T03:54:02.411Z,17.56
2016-09-11T03:55:02.875Z,17.59
2016-09-11T03:56:02.467Z,17.56
2016-09-11T03:57:02.807Z,17.51
2016-09-11T03:58:02.600Z,17.51
2016-09-11T03:59:03.164Z,17.51
2016-09-11T04:01:02.592Z,17.54
2016-09-11T04:02:02.611Z,17.48
2016-09-11T04:03:02.653Z,17.49
2016-09-11T04:04:03.250Z,17.43
2016-09-11T04:05:02.989Z,17.51
2016-09-11T04:06:02.959Z,17.48
2016-09-11T04:07:17.656Z,17.43
2016-09-11T04:08:03.175Z,17.54
2016-09-11T04:09:02.800Z,17.55
2016-09-11T04:10:02.855Z,17.51
2016-09-11T04:12:02.855Z,17.49
2016-09-11T04:13:02.880Z,17.54
2016-09-11T04:14:02.909Z,17.51
2016-09-11T04:15:02.942Z,17.43
2016-09-11T04:16:02.967Z,17.49
2016-09-11T04:17:17.920Z,17.49
2016-09-11T04:19:17.962Z,17.4
2016-09-11T04:20:03.137Z,17.38
2016-09-11T04:23:18.066Z,17.33
2016-09-11T04:24:03.399Z,17.26
2016-09-11T04:25:12.487Z,17.38
2016-09-11T04:26:03.221Z,17.4
2016-09-11T04:27:03.334Z,17.31
2016-09-11T04:28:03.263Z,17.36
2016-09-11T04:29:03.292Z,17.3
2016-09-11T04:30:03.319Z,17.3
2016-09-11T04:31:03.369Z,17.25
2016-09-11T04:32:03.372Z,17.28
2016-09-11T04:33:03.387Z,17.28
2016-09-11T04:34:03.417Z,17.25
2016-09-11T04:35:03.450Z,17.28
2016-09-11T04:36:18.395Z,17.31
2016-09-11T04:37:03.501Z,17.26
2016-09-11T04:38:03.526Z,17.31
2016-09-11T04:39:18.476Z,17.21
2016-09-11T04:40:03.578Z,17.28
2016-09-11T04:41:03.600Z,17.18
2016-09-11T04:42:03.622Z,17.19
2016-09-11T04:43:03.645Z,17.18
2016-09-11T04:44:03.671Z,17.23
2016-09-11T04:45:03.697Z,17.25
2016-09-11T04:46:03.720Z,17.28
2016-09-11T04:47:03.750Z,17.3
2016-09-11T04:49:03.801Z,17.41
2016-09-11T04:50:03.825Z,17.44
2016-09-11T04:51:03.852Z,17.36
2016-09-11T04:52:03.875Z,17.41
2016-09-11T04:53:03.910Z,17.33
2016-09-11T04:54:18.874Z,17.31
2016-09-11T04:55:03.970Z,17.26
2016-09-11T04:56:03.984Z,17.3
2016-09-11T04:57:04.013Z,17.28
2016-09-11T04:58:04.030Z,17.31
2016-09-11T04:59:04.061Z,17.26
2016-09-11T05:00:04.084Z,17.23
2016-09-11T05:01:04.104Z,17.21
2016-09-11T05:02:04.186Z,17.23
2016-09-11T05:03:04.160Z,17.26
2016-09-11T05:04:04.190Z,17.25
2016-09-11T05:06:19.181Z,17.4
2016-09-11T05:07:04.292Z,17.4
2016-09-11T05:08:04.288Z,17.43
2016-09-11T05:09:04.310Z,17.44
2016-09-11T05:10:04.419Z,17.52
2016-09-11T05:11:04.373Z,17.59
2016-09-11T05:12:04.439Z,17.71
2016-09-11T05:13:04.412Z,17.74
2016-09-11T05:14:04.441Z,17.63
2016-09-11T05:15:04.467Z,17.71
2016-09-11T05:16:04.488Z,17.75
2016-09-11T05:17:04.516Z,17.77
2016-09-11T05:18:04.543Z,17.79
2016-09-11T05:19:04.567Z,17.9
2016-09-11T05:20:04.593Z,17.84
2016-09-11T05:21:04.628Z,17.84
2016-09-11T05:22:04.649Z,17.92
2016-09-11T05:23:04.671Z,17.96
2016-09-11T05:24:04.696Z,17.93
2016-09-11T05:25:04.721Z,18.05
2016-09-11T05:26:19.667Z,17.95
2016-09-11T05:27:04.781Z,18.07
2016-09-11T05:28:04.826Z,18.07
2016-09-11T05:29:04.826Z,18.07
2016-09-11T05:30:04.922Z,18.1
2016-09-11T05:31:04.871Z,18.15
2016-09-11T05:32:04.903Z,18.12
2016-09-11T05:33:04.921Z,18.27
2016-09-11T05:34:04.956Z,18.27
2016-09-11T05:35:04.978Z,18.29
2016-09-11T05:36:05.005Z,18.32
2016-09-11T05:37:05.043Z,18.36
2016-09-11T05:38:05.063Z,18.26
2016-09-11T05:40:05.109Z,18.41
2016-09-11T05:41:05.136Z,18.5
2016-09-11T05:42:20.082Z,18.5
2016-09-11T05:43:05.186Z,18.63
2016-09-11T05:44:05.210Z,18.67
2016-09-11T05:45:05.237Z,18.67
2016-09-11T05:46:05.261Z,18.69
2016-09-11T05:47:05.287Z,18.8
2016-09-11T05:48:05.311Z,18.7
2016-09-11T05:49:05.341Z,18.73
2016-09-11T05:50:05.370Z,18.88
2016-09-11T05:51:05.393Z,18.98
2016-09-11T05:52:20.347Z,19.08
2016-09-11T05:53:05.450Z,19.21
2016-09-11T05:54:20.400Z,19.4
2016-09-11T05:55:05.494Z,19.55
2016-09-11T05:56:05.530Z,19.8
2016-09-11T05:57:05.553Z,20.02
2016-09-11T05:58:20.510Z,20.18
2016-09-11T06:00:05.644Z,20.67
2016-09-11T06:01:05.934Z,20.79
2016-09-11T06:02:05.685Z,21.01
2016-09-11T06:03:05.711Z,21.22
2016-09-11T06:04:05.791Z,21.38
2016-09-11T06:05:05.817Z,21.47
2016-09-11T06:06:05.795Z,21.61
2016-09-11T06:07:05.940Z,21.82
2016-09-11T06:08:05.865Z,22
2016-09-11T06:09:05.877Z,22
2016-09-11T06:11:20.867Z,22.35
2016-09-11T06:12:06.251Z,22.42
2016-09-11T06:13:06.285Z,22.45
2016-09-11T06:14:20.957Z,22.42
2016-09-11T06:15:06.567Z,22.46
2016-09-11T06:16:06.123Z,22.49
2016-09-11T06:17:06.165Z,22.72
2016-09-11T06:18:06.464Z,22.77
2016-09-11T06:19:21.181Z,22.98
2016-09-11T06:20:07.292Z,22.86
2016-09-11T06:21:06.582Z,22.98
2016-09-11T06:22:06.286Z,23
2016-09-11T06:23:06.323Z,23.05
2016-09-11T06:24:06.374Z,23.09
2016-09-11T06:25:09.553Z,23.25
2016-09-11T06:26:06.717Z,23.33
2016-09-11T06:28:06.487Z,23.4
2016-09-11T06:29:21.427Z,23.68
2016-09-11T06:30:07.032Z,23.69
2016-09-11T06:32:21.541Z,23.65
2016-09-11T06:33:06.937Z,23.84
2016-09-11T06:34:06.688Z,23.75
2016-09-11T06:35:07.070Z,23.78
2016-09-11T06:36:06.734Z,23.79
2016-09-11T06:38:06.946Z,24.06
2016-09-11T06:39:06.843Z,24.13
2016-09-11T06:40:07.048Z,24.4
2016-09-11T06:41:07.219Z,24.35
2016-09-11T06:42:06.964Z,24.34
2016-09-11T06:43:06.967Z,24.43
2016-09-11T06:44:07.027Z,24.52
2016-09-11T06:45:08.633Z,24.6
2016-09-11T06:46:07.083Z,24.76
2016-09-11T06:47:07.140Z,24.8
2016-09-11T06:48:07.151Z,24.91
2016-09-11T06:49:07.201Z,25.1
2016-09-11T06:50:07.734Z,25.18
2016-09-11T06:51:07.425Z,25.14
2016-09-11T06:52:07.260Z,25.15
2016-09-11T06:53:08.469Z,25.39
2016-09-11T06:54:22.263Z,25.62
2016-09-11T06:55:07.411Z,25.72
2016-09-11T06:56:07.394Z,25.92
2016-09-11T06:57:07.432Z,25.85
2016-09-11T06:58:22.391Z,26.01
2016-09-11T06:59:07.535Z,26.18
2016-09-11T07:00:08.465Z,26.39
2016-09-11T07:01:22.488Z,26.6
2016-09-11T07:02:07.607Z,26.67
2016-09-11T07:03:07.639Z,26.73
2016-09-11T07:05:07.735Z,26.67
2016-09-11T07:07:07.805Z,26.84
2016-09-11T07:08:07.882Z,26.77
2016-09-11T07:09:07.891Z,26.89
2016-09-11T07:10:08.123Z,27.12
2016-09-11T07:11:07.929Z,27.24
2016-09-11T07:12:22.879Z,27.65
2016-09-11T07:14:08.032Z,27.74
2016-09-11T07:15:08.183Z,27.74
2016-09-11T07:17:23.056Z,27.78
2016-09-11T07:18:08.273Z,27.84
2016-09-11T07:19:08.268Z,27.97
2016-09-11T07:20:08.239Z,27.99
2016-09-11T07:21:08.281Z,28.11
2016-09-11T07:22:08.628Z,28.33
2016-09-11T07:23:08.477Z,28.37
2016-09-11T07:24:08.379Z,28.24
2016-09-11T07:25:08.532Z,28.31
2016-09-11T07:26:08.448Z,28.39
2016-09-11T07:27:08.541Z,28.48
2016-09-11T07:28:08.544Z,28.56
2016-09-11T07:29:08.915Z,28.78
2016-09-11T07:30:08.678Z,28.8
2016-09-11T07:31:08.649Z,28.89
2016-09-11T07:32:09.394Z,28.83
2016-09-11T07:33:23.619Z,28.93
2016-09-11T07:35:08.783Z,28.8
2016-09-11T07:36:08.805Z,28.83
2016-09-11T07:38:10.152Z,28.96
2016-09-11T07:39:09.002Z,28.85
2016-09-11T07:40:09.266Z,29
2016-09-11T07:41:09.042Z,29.19
2016-09-11T07:42:09.028Z,29.27
2016-09-11T07:43:23.991Z,29.55
2016-09-11T07:44:09.198Z,29.73
2016-09-11T07:46:09.171Z,29.82
2016-09-11T07:47:09.229Z,29.7
2016-09-11T07:48:09.234Z,30
2016-09-11T07:49:24.325Z,29.87
2016-09-11T07:50:09.401Z,29.83
2016-09-11T07:51:09.789Z,29.87
2016-09-11T07:52:24.319Z,29.92
2016-09-11T07:53:09.434Z,29.74
2016-09-11T07:54:09.464Z,30.08
2016-09-11T07:55:09.841Z,30.15
2016-09-11T07:56:10.183Z,30.08
2016-09-11T07:57:09.555Z,30.27
2016-09-11T07:58:09.841Z,30.31
2016-09-11T07:59:09.638Z,30.13
2016-09-11T08:00:09.663Z,30.11
2016-09-11T08:01:10.068Z,29.76
2016-09-11T08:02:09.735Z,29.71
2016-09-11T08:03:24.703Z,29.83
2016-09-11T08:05:09.859Z,30.15
2016-09-11T08:06:09.904Z,30.1
2016-09-11T08:07:09.937Z,30.23
2016-09-11T08:09:10.056Z,30.57
2016-09-11T08:10:10.023Z,30.57
2016-09-11T08:12:10.216Z,30.11
2016-09-11T08:13:10.141Z,30.07
2016-09-11T08:14:10.192Z,29.89
2016-09-11T08:15:10.237Z,29.78
2016-09-11T08:16:25.169Z,29.86
2016-09-11T08:17:10.304Z,29.86
2016-09-11T08:19:10.367Z,30.32
2016-09-11T08:20:10.514Z,30.46
2016-09-11T08:21:10.467Z,30.57
2016-09-11T08:22:10.477Z,30.55
2016-09-11T08:23:10.563Z,30.42
2016-09-11T08:24:10.533Z,30.19
2016-09-11T08:25:10.704Z,30.1
2016-09-11T08:26:10.632Z,30.38
2016-09-11T08:27:10.953Z,30.6
2016-09-11T08:28:11.313Z,30.58
2016-09-11T08:29:10.705Z,30.64
2016-09-11T08:30:10.871Z,30.39
2016-09-11T08:33:10.873Z,30.89
2016-09-11T08:34:10.889Z,30.86
2016-09-11T08:35:11.015Z,30.55
2016-09-11T08:36:25.889Z,30.22
2016-09-11T08:38:11.026Z,30.31
2016-09-11T08:39:11.077Z,30.51
2016-09-11T08:40:11.109Z,30.58
2016-09-11T08:41:11.149Z,30.45
2016-09-11T08:42:11.168Z,30.31
2016-09-11T08:43:11.354Z,30.57
2016-09-11T08:44:11.231Z,30.95
2016-09-11T08:46:11.321Z,30.43
2016-09-11T08:47:11.351Z,30.65
2016-09-11T08:48:26.309Z,30.86
2016-09-11T08:49:11.437Z,31.09
2016-09-11T08:50:11.485Z,31.17
2016-09-11T08:51:11.492Z,30.86
2016-09-11T08:52:26.457Z,30.27
2016-09-11T08:53:11.584Z,30.26
2016-09-11T08:54:11.647Z,30.46
2016-09-11T08:55:11.634Z,30.49
2016-09-11T08:56:11.702Z,30.29
2016-09-11T08:57:12.012Z,30.27
2016-09-11T08:58:12.043Z,30.34
2016-09-11T08:59:12.096Z,30.7
2016-09-11T09:00:11.823Z,30.94
2016-09-11T09:01:11.865Z,30.95
2016-09-11T09:02:11.877Z,30.91
2016-09-11T09:03:11.917Z,31.06
2016-09-11T09:04:12.168Z,31.28
2016-09-11T09:05:12.041Z,31.32
2016-09-11T09:06:12.030Z,31.47
2016-09-11T09:07:26.997Z,31.53
2016-09-11T09:08:27.020Z,31.54
2016-09-11T09:09:12.960Z,31.69
2016-09-11T09:10:12.160Z,31.84
2016-09-11T09:11:12.645Z,31.91
2016-09-11T09:12:12.258Z,31.89
2016-09-11T09:13:12.379Z,32.07
2016-09-11T09:14:12.731Z,32.01
2016-09-11T09:15:12.339Z,32.23
2016-09-11T09:16:12.669Z,32.13
2016-09-11T09:17:27.339Z,31.92
2016-09-11T09:18:12.523Z,31.96
2016-09-11T09:19:12.740Z,32.13
2016-09-11T09:20:12.526Z,31.88
2016-09-11T09:22:12.604Z,31.61
2016-09-11T09:23:12.631Z,31.73
2016-09-11T09:24:27.584Z,31.75
2016-09-11T09:25:12.696Z,32.01
2016-09-11T09:26:13.346Z,32.08
2016-09-11T09:27:12.784Z,32.35
2016-09-11T09:28:12.857Z,32.32
2016-09-11T09:29:13.169Z,32.32
2016-09-11T09:30:12.909Z,32.48
2016-09-11T09:31:12.904Z,32.25
2016-09-11T09:32:13.245Z,32.33
2016-09-11T09:33:12.992Z,32.41
2016-09-11T09:34:13.003Z,32.77
2016-09-11T09:35:13.060Z,32.57
2016-09-11T09:36:13.079Z,32.74
2016-09-11T09:37:13.128Z,32.87
2016-09-11T09:38:28.491Z,32.75
2016-09-11T09:39:28.524Z,32.87
2016-09-11T09:40:13.247Z,32.47
2016-09-11T09:41:13.274Z,32.5
2016-09-11T09:42:13.290Z,32.23
2016-09-11T09:43:13.380Z,32.1
2016-09-11T09:44:13.381Z,32.25
2016-09-11T09:45:13.706Z,32.43
2016-09-11T09:46:13.452Z,32.25
2016-09-11T09:47:13.772Z,32.29
2016-09-11T09:48:13.839Z,32.37
2016-09-11T09:49:13.581Z,32.26
2016-09-11T09:50:13.606Z,32.44
2016-09-11T09:51:13.617Z,32.75
2016-09-11T09:52:14.049Z,32.82
2016-09-11T09:53:28.907Z,33.28
2016-09-11T09:54:13.729Z,33.39
2016-09-11T09:55:28.679Z,33.12
2016-09-11T09:56:14.421Z,33.07
2016-09-11T09:57:13.925Z,33.07
2016-09-11T09:58:13.854Z,33.34
2016-09-11T09:59:13.895Z,33.32
2016-09-11T10:00:13.928Z,33.19
2016-09-11T10:01:13.975Z,33.49
2016-09-11T10:02:14.158Z,33.6
2016-09-11T10:03:14.349Z,33.75
2016-09-11T10:04:14.489Z,33.65
2016-09-11T10:05:14.108Z,33.87
2016-09-11T10:06:14.139Z,33.9
2016-09-11T10:08:14.523Z,33.61
2016-09-11T10:10:14.601Z,33.09
2016-09-11T10:11:29.246Z,32.45
2016-09-11T10:12:14.346Z,32.43
2016-09-11T10:13:14.388Z,32.37
2016-09-11T10:14:14.420Z,32.35
2016-09-11T10:15:14.472Z,32.22
2016-09-11T10:16:14.502Z,32.3
2016-09-11T10:17:14.527Z,32.18
2016-09-11T10:18:14.600Z,31.84
2016-09-11T10:19:14.921Z,31.58
2016-09-11T10:20:14.657Z,31.57
2016-09-11T10:21:14.673Z,31.61
2016-09-11T10:22:15.054Z,31.48
2016-09-11T10:23:14.751Z,31.07
2016-09-11T10:24:14.805Z,30.75
2016-09-11T10:25:14.899Z,30.62
2016-09-11T10:26:15.148Z,30.64
2016-09-11T10:27:29.802Z,30.84
2016-09-11T10:28:15.237Z,31.04
2016-09-11T10:29:15.299Z,31.04
2016-09-11T10:30:14.985Z,31.23
2016-09-11T10:31:15.021Z,31.36
2016-09-11T10:32:15.046Z,31.38
2016-09-11T10:33:15.130Z,31.58
2016-09-11T10:34:15.462Z,31.46
2016-09-11T10:35:15.198Z,31.36
2016-09-11T10:36:15.185Z,31.23
2016-09-11T10:37:15.319Z,31.35
2016-09-11T10:38:15.253Z,31.36
2016-09-11T10:39:15.305Z,31.26
2016-09-11T10:40:15.374Z,31.19
2016-09-11T10:41:15.384Z,31.36
2016-09-11T10:42:15.490Z,31.41
2016-09-11T10:43:30.685Z,31.35
2016-09-11T10:44:15.477Z,31.21
2016-09-11T10:45:15.796Z,31.06
2016-09-11T10:46:15.527Z,30.77
2016-09-11T10:47:30.492Z,30.83
2016-09-11T10:48:15.605Z,30.99
2016-09-11T10:49:15.633Z,30.86
2016-09-11T10:50:16.061Z,31.04
2016-09-11T10:51:16.036Z,31.16
2016-09-11T10:52:15.727Z,31.43
2016-09-11T10:53:15.767Z,31.5
2016-09-11T10:54:16.103Z,31.57
2016-09-11T10:55:16.138Z,31.54
2016-09-11T10:56:16.204Z,31.62
2016-09-11T10:57:15.896Z,31.51
2016-09-11T10:58:15.949Z,31.62
2016-09-11T10:59:31.192Z,31.56
2016-09-11T11:00:15.998Z,31.62
2016-09-11T11:01:16.040Z,31.48
2016-09-11T11:02:16.065Z,31.48
2016-09-11T11:03:31.082Z,31.8
2016-09-11T11:04:17.316Z,31.61
2016-09-11T11:05:16.162Z,31.73
2016-09-11T11:06:16.197Z,31.76
2016-09-11T11:07:16.254Z,31.76
2016-09-11T11:08:16.275Z,31.76
2016-09-11T11:09:16.301Z,31.63
2016-09-11T11:10:16.634Z,31.78
2016-09-11T11:11:16.374Z,31.88
2016-09-11T11:12:16.402Z,31.66
2016-09-11T11:13:16.447Z,31.76
2016-09-11T11:14:31.392Z,31.84
2016-09-11T11:15:16.538Z,31.89
2016-09-11T11:16:16.564Z,31.91
2016-09-11T11:17:16.616Z,31.95
2016-09-11T11:18:16.648Z,32
2016-09-11T11:19:16.634Z,32.1
2016-09-11T11:20:16.682Z,31.93
2016-09-11T11:21:17.005Z,31.91
2016-09-11T11:22:17.362Z,31.88
2016-09-11T11:24:16.805Z,31.68
2016-09-11T11:25:17.019Z,31.57
2016-09-11T11:26:17.151Z,31.51
2016-09-11T11:27:17.518Z,31.62
2016-09-11T11:28:17.019Z,31.78
2016-09-11T11:29:17.029Z,31.78
2016-09-11T11:30:17.144Z,31.91
2016-09-11T11:31:17.049Z,31.99
2016-09-11T11:32:17.118Z,32.08
2016-09-11T11:33:17.100Z,32.11
2016-09-11T11:34:17.133Z,31.95
2016-09-11T11:35:17.251Z,31.81
2016-09-11T11:36:17.205Z,31.86
2016-09-11T11:37:17.570Z,31.91
2016-09-11T11:38:17.279Z,31.78
2016-09-11T11:39:17.303Z,31.73
2016-09-11T11:40:17.354Z,31.93
2016-09-11T11:41:17.663Z,32.06
2016-09-11T11:42:17.432Z,32.04
2016-09-11T11:43:21.655Z,32.01
2016-09-11T11:44:17.804Z,31.95
2016-09-11T11:45:32.437Z,32.04
2016-09-11T11:47:17.593Z,32.08
2016-09-11T11:48:17.788Z,32.25
2016-09-11T11:49:17.890Z,32.33
2016-09-11T11:50:18.228Z,32.14
2016-09-11T11:51:17.771Z,32.29
2016-09-11T11:52:18.031Z,32.37
2016-09-11T11:53:18.084Z,32.26
2016-09-11T11:54:17.798Z,32.29
2016-09-11T11:55:17.839Z,32.32
2016-09-11T11:56:17.919Z,32.4
2016-09-11T11:57:17.895Z,32.44
2016-09-11T11:58:17.933Z,32.5
2016-09-11T11:59:17.968Z,32.45
2016-09-11T12:00:18.370Z,32.32
2016-09-11T12:01:18.038Z,32.51
2016-09-11T12:02:33.021Z,32.69
2016-09-11T12:03:18.109Z,32.57
2016-09-11T12:04:18.136Z,32.59
2016-09-11T12:05:18.204Z,32.65
2016-09-11T12:06:18.213Z,32.69
2016-09-11T12:07:18.249Z,32.5
2016-09-11T12:08:18.266Z,32.48
2016-09-11T12:09:18.299Z,32.66
2016-09-11T12:10:18.643Z,32.67
2016-09-11T12:11:18.360Z,32.52
2016-09-11T12:12:18.701Z,32.47
2016-09-11T12:13:18.765Z,32.6
2016-09-11T12:14:18.477Z,32.47
2016-09-11T12:15:18.523Z,32.41
2016-09-11T12:16:18.529Z,32.57
2016-09-11T12:17:18.572Z,32.69
2016-09-11T12:18:33.537Z,32.65
2016-09-11T12:19:18.627Z,32.65
2016-09-11T12:20:18.669Z,32.69
2016-09-11T12:21:18.698Z,32.75
2016-09-11T12:22:18.768Z,32.75
2016-09-11T12:23:19.122Z,32.88
2016-09-11T12:24:18.802Z,32.75
2016-09-11T12:25:18.825Z,32.69
2016-09-11T12:26:18.919Z,32.7
2016-09-11T12:27:18.904Z,32.66
2016-09-11T12:28:18.927Z,32.57
2016-09-11T12:29:19.013Z,32.59
2016-09-11T12:30:19.357Z,32.5
2016-09-11T12:31:19.025Z,32.55
2016-09-11T12:32:19.080Z,32.6
2016-09-11T12:33:19.108Z,32.57
2016-09-11T12:34:34.055Z,32.63
2016-09-11T12:35:34.081Z,32.55
2016-09-11T12:36:19.217Z,32.28
2016-09-11T12:37:19.235Z,32.32
2016-09-11T12:38:19.332Z,32.28
2016-09-11T12:39:19.291Z,32.11
2016-09-11T12:40:19.746Z,32.13
2016-09-11T12:41:19.391Z,32.1
2016-09-11T12:42:19.732Z,32.13
2016-09-11T12:43:19.428Z,32.19
2016-09-11T12:44:19.489Z,32.33
2016-09-11T12:45:19.513Z,32.3
2016-09-11T12:46:19.532Z,32.26
2016-09-11T12:47:19.567Z,32.19
2016-09-11T12:48:19.596Z,32.28
2016-09-11T12:49:34.753Z,32.37
2016-09-11T12:50:20.071Z,32.38
2016-09-11T12:51:34.632Z,32.45
2016-09-11T12:53:20.139Z,32.44
2016-09-11T12:54:19.799Z,32.52
2016-09-11T12:55:19.860Z,32.66
2016-09-11T12:56:19.855Z,32.5
2016-09-11T12:57:19.933Z,32.38
2016-09-11T12:58:19.938Z,32.52
2016-09-11T13:00:20.125Z,32.45
2016-09-11T13:01:20.375Z,32.32
2016-09-11T13:02:35.327Z,32.43
2016-09-11T13:03:20.106Z,32.38
2016-09-11T13:04:20.151Z,32.06
2016-09-11T13:05:36.025Z,31.99
2016-09-11T13:06:20.209Z,32.21
2016-09-11T13:07:20.550Z,31.92
2016-09-11T13:08:20.372Z,31.89
2016-09-11T13:09:20.306Z,31.81
2016-09-11T13:10:35.258Z,31.91
2016-09-11T13:11:20.358Z,32.08
2016-09-11T13:12:20.393Z,32.23
2016-09-11T13:13:20.425Z,32.37
2016-09-11T13:14:21.055Z,32.37
2016-09-11T13:15:20.915Z,32.23
2016-09-11T13:16:20.822Z,32.37
2016-09-11T13:17:20.581Z,32.41
2016-09-11T13:18:20.600Z,32.52
2016-09-11T13:19:20.632Z,32.4
2016-09-11T13:21:35.921Z,32.52
2016-09-11T13:22:20.728Z,32.55
2016-09-11T13:23:20.768Z,32.28
2016-09-11T13:24:20.837Z,32.35
2016-09-11T13:25:20.829Z,32.5
2016-09-11T13:26:21.222Z,32.52
2016-09-11T13:27:20.906Z,32.59
2016-09-11T13:28:20.934Z,32.75
2016-09-11T13:29:20.959Z,32.78
2016-09-11T13:30:21.057Z,32.77
2016-09-11T13:32:35.981Z,32.55
2016-09-11T13:33:21.141Z,32.65
2016-09-11T13:34:21.142Z,32.65
2016-09-11T13:35:21.198Z,32.72
2016-09-11T13:36:21.182Z,32.41
2016-09-11T13:37:36.144Z,32.41
2016-09-11T13:38:21.288Z,32.41
2016-09-11T13:39:21.286Z,32.35
2016-09-11T13:40:21.330Z,32.38
2016-09-11T13:41:21.357Z,32.32
2016-09-11T13:42:21.440Z,32.48
2016-09-11T13:43:36.381Z,32.35
2016-09-11T13:44:21.465Z,32.33
2016-09-11T13:45:21.496Z,32.4